Henderson, Nevada Weather observations

Data are for observation ending at time listed.
 Day   Time    Ave.   Ave.  Ave.  Vector   Max.   Stn.    Total    Solar   Ave.  
  of    of     Air    Rel.  Wind   Wind    Wind   Baro.  Precip.   Rad.    Soil  
Year   Day     Temp.  Hum.  Speed  Dir.    Gust   Pres.                    Temp. 
2014   (PST)    F      %     mph   deg.    mph     mb.     in.     W/m2     F   
------------------------------------------------------------------------------
 295    5:10   59.5    30    0.6   111      2.4   937.0    0.00       0    56.0
 295    5:20   59.6    30    0.6   136      1.9   937.1    0.00       0    55.6
 295    5:30   59.4    30    0.4   173      1.7   937.2    0.00       0    55.2
 295    5:40   58.9    30    0.9   174      1.8   937.3    0.00       0    54.7
 295    5:50   58.9    31    0.3   180      1.2   937.4    0.00       1    54.4
 295    6:00   58.7    31    0.2   133      0.9   937.6    0.00       7    54.0
 295    6:10   58.4    32    0.1   179      0.7   937.7    0.00      10    53.7
 295    6:20   58.3    33    0.3   255      1.6   938.0    0.00      34    53.6
 295    6:30   59.6    32    0.6   185      2.0   938.2    0.00      65    54.1
 295    6:40   62.2    29    0.6   182      2.6   938.4    0.00     101    55.8
 295    6:50   63.8    29    0.8   222      2.3   938.6    0.00     145    58.5
 295    7:00   65.9    27    1.1   120      3.1   938.9    0.00     174    61.2
 295    7:10   66.3    27    1.2   271      3.1   939.1    0.00     207    64.0
 295    7:20   68.2    25    0.9   261      2.2   939.3    0.00     218    66.3
 295    7:30   69.2    23    0.8   335      2.3   939.4    0.00     276    68.5
 295    7:40   71.3    21    0.4    17      1.6   939.5    0.00     310    70.9
 295    7:50   71.7    21    1.1   332      2.6   939.6    0.00     345    73.0
 295    8:00   71.5    21    1.1   336      2.9   939.6    0.00     378    74.8
 295    8:10   70.9    21    2.5   325      4.2   939.7    0.00     411    76.1
 295    8:20   70.7    20    2.8   321      4.6   939.8    0.00     443    76.8
 295    8:30   70.8    20    2.3   304      5.8   939.9    0.00     477    77.5
 295    8:40   71.5    20    2.0   299      4.5   939.9    0.00     518    78.5
 295    8:50   72.3    19    2.4   302      5.6   940.0    0.00     523    79.4
 295    9:00   72.1    19    2.7   298      4.6   940.0    0.00     565    80.1
 295    9:10   72.9    18    2.8   325      5.4   940.1    0.00     598    80.8
 295    9:20   73.3    18    3.5   311      6.4   940.1    0.00     598    81.5
 295    9:30   73.6    19    3.3   300      7.4   940.0    0.00     623    82.0
 295    9:40   73.8    19    3.2   302      5.5   940.0    0.00     662    82.5
 295    9:50   74.8    18    2.6   303      6.4   939.8    0.00     686    83.3
 295   10:00   75.2    18    3.1   289      6.9   939.9    0.00     698    84.3
 295   10:10   75.7    17    2.6   315      6.1   940.0    0.00     711    84.8
 295   10:20   76.8    16    2.5   314      6.1   940.0    0.00     732    85.8
 295   10:30   76.1    16    3.0   297      6.5   940.0    0.00     739    86.2
 295   10:40   76.8    16    3.5   322      6.9   940.0    0.00     734    86.3
 295   10:50   77.3    15    2.9   320      5.9   940.0    0.00     747    86.3
 295   11:00   77.6    16    2.8   299      5.5   939.9    0.00     769    86.5
 295   11:10   78.2    15    2.0   325      5.2   939.8    0.00     754    87.0
 295   11:20   78.7    15    2.4   326      4.1   939.7    0.00     782    87.6
 295   11:30   79.3    14    2.2    12      6.8   939.7    0.00     776    88.1
 295   11:40   79.8    14    2.1     2      4.6   939.5    0.00     743    88.2
 295   11:50   79.7    15    2.0   306      4.5   939.3    0.00     679    88.2
 295   12:00   80.2    14    2.4   345      6.5   939.2    0.00     762    87.9
 295   12:10   80.1    14    2.7   332      6.8   939.1    0.00     746    88.2
 295   12:20   80.0    14    2.4   320      4.3   939.0    0.00     760    88.1
 295   12:30   81.1    14    1.7    16      4.5   938.9    0.00     774    88.4
 295   12:40   81.6    13    1.6    91      4.7   938.8    0.00     675    88.7
 295   12:50   82.2    13    1.1    36      3.2   938.7    0.00     718    88.3
 295   13:00   82.8    13    1.2    20      3.4   938.6    0.00     696    88.5
 295   13:10   82.8    13    1.1    60      3.4   938.5    0.00     685    88.5
 295   13:20   82.5    13    1.5   143      4.2   938.5    0.00     662    88.4
 295   13:30   82.6    13    2.3   314      5.3   938.3    0.00     646    88.1
 295   13:40   83.1    13    1.5     7      3.3   938.2    0.00     636    87.7
 295   13:50   83.8    12    1.3   122      3.1   938.1    0.00     603    87.6
 295   14:00   83.7    13    1.6   134      4.2   938.1    0.00     560    87.2
 295   14:10   83.1    13    1.2    98      3.5   938.0    0.00     428    86.2
 295   14:20   83.8    13    1.8    84      3.8   938.0    0.00     473    85.4
 295   14:30   84.5    13    1.2    44      4.0   938.0    0.00     521    84.8
 295   14:40   84.8    12    2.1   360      4.7   938.1    0.00     486    84.3
 295   14:50   83.8    13    2.5   318      5.6   938.0    0.00     425    83.5
 295   15:00   83.9    13    1.9   354      4.6   938.0    0.00     403    82.7
 295   15:10   83.5    13    3.1   321      5.7   938.0    0.00     345    82.1
 295   15:20   83.6    13    1.5   331      4.0   938.0    0.00     290    81.3
 295   15:30   83.6    13    2.1   329      4.7   938.0    0.00     249    80.5
 295   15:40   82.6    14    2.6   336      4.8   938.0    0.00     254    80.0
 295   15:50   82.3    14    2.3   348      5.4   937.8    0.00     217    79.5
 295   16:00   82.0    14    2.0     4      4.8   937.7    0.00     179    79.0
 295   16:10   81.7    14    2.2    16      5.2   937.7    0.00     148    78.5
 295   16:20   81.3    14    2.1     4      5.7   937.7    0.00      83    78.0
 295   16:30   80.7    14    1.8    27      5.0   937.7    0.00      56    77.4
 295   16:40   79.9    14    1.4    18      4.3   937.7    0.00      20    76.7
 295   16:50   79.3    15    1.9    13      5.0   937.8    0.00      15    75.8
 295   17:00   78.7    15    1.5    31      2.9   937.9    0.00       7    75.0
 295   17:10   77.7    16    0.7    40      2.0   937.9    0.00       4    74.0
 295   17:20   76.6    16    0.5    44      2.7   938.0    0.00       0    73.0
 295   17:30   75.4    17    0.4    25      1.2   938.0    0.00       0    71.9
 295   17:40   74.2    18    0.0    46      0.1   938.1    0.00       0    70.9
 295   17:50   73.7    19    0.2   178      1.2   938.2    0.00       0    70.1
 295   18:00   73.3    20    0.2   168      1.3   938.2    0.00       0    69.5
 295   18:10   73.6    20    1.1   193      2.1   938.3    0.00       0    69.0
 295   18:20   73.6    21    1.4   204      2.4   938.3    0.00       0    68.6
 295   18:30   73.3    21    1.5   204      2.5   938.3    0.00       0    68.3
 295   18:40   73.2    20    1.5   191      2.9   938.4    0.00       0    68.0
 295   18:50   73.4    20    1.4   200      3.4   938.3    0.00       0    67.8
 295   19:00   72.6    21    2.0   204      2.9   938.4    0.00       0    67.5
 295   19:10   72.1    21    1.9   209      2.6   938.4    0.00       0    67.2
 295   19:20   71.9    21    1.9   206      2.9   938.4    0.00       0    66.8
 295   19:30   71.7    21    2.0   210      2.6   938.4    0.00       0    66.5
 295   19:40   71.7    21    2.1   206      2.9   938.4    0.00       0    66.3
 295   19:50   71.3    20    2.8   193      4.1   938.4    0.00       0    66.1
 295   20:00   72.1    20    3.1   182      4.5   938.5    0.00       0    66.1
 295   20:10   71.9    20    2.1   216      3.8   938.6    0.00       0    66.4
 295   20:20   70.3    22    1.6   269      2.9   938.7    0.00       0    66.0
 295   20:30   69.7    22    1.6   221      2.8   938.8    0.00       0    65.6
 295   20:40   69.6    23    1.8   210      2.6   938.9    0.00       0    65.0
 295   20:50   69.5    23    2.2   206      3.4   939.0    0.00       0    64.6
 295   21:00   69.5    23    2.9   200      4.2   939.0    0.00       0    64.2
 295   21:10   69.5    23    2.2   198      3.6   939.1    0.00       0    64.0
 295   21:20   69.1    23    2.1   202      3.4   939.2    0.00       0    63.6
 295   21:30   67.4    25    0.8   250      2.0   939.3    0.00       0    63.2
 295   21:40   67.0    25    1.1   238      2.0   939.3    0.00       0    62.7
 295   21:50   67.3    24    1.6   203      2.8   939.3    0.00       0    62.3
 295   22:00   68.2    24    1.4   194      2.8   939.3    0.00       0    62.1
 295   22:10   68.1    24    1.7   191      3.1   939.3    0.00       0    61.9
 295   22:20   67.9    23    3.5   192      5.3   939.3    0.00       0    61.9
 295   22:30   67.4    24    2.9   194      4.2   939.3    0.00       0    61.9
 295   22:40   67.3    24    2.1   186      3.9   939.3    0.00       0    61.8
 295   22:50   67.0    24    1.4   205      2.4   939.4    0.00       0    61.6
 295   23:00   65.9    26    1.5   192      3.3   939.4    0.00       0    61.1
 295   23:10   66.0    25    2.0   192      3.4   939.5    0.00       0    60.9
 295   23:20   66.3    25    2.7   195      3.9   939.4    0.00       0    60.8
 295   23:30   65.8    26    2.8   193      3.9   939.5    0.00       0    60.7
 295   23:40   66.1    25    2.7   186      4.7   939.5    0.00       0    60.5
 295   23:50   66.4    24    2.8   190      4.3   939.5    0.00       0    60.7
 296    0:00   65.6    26    1.8   198      3.2   939.6    0.00       0    60.6
 296    0:10   64.9    26    1.9   190      3.3   939.7    0.00       0    60.2
 296    0:20   64.5    27    1.3   206      2.7   939.8    0.00       0    59.9
 296    0:30   64.0    27    0.9   112      2.3   939.6    0.00       0    59.6
 296    0:40   64.0    27    0.4   202      2.7   939.5    0.00       0    59.3
 296    0:50   63.8    27    1.9   198      3.9   939.6    0.00       0    59.0
 296    1:00   64.2    27    1.7   188      3.6   939.5    0.00       0    58.8
 296    1:10   64.6    27    1.8   190      3.4   939.4    0.00       0    58.8
 296    1:20   64.0    28    1.7   190      2.9   939.5    0.00       0    58.6
 296    1:30   63.1    28    0.0     0      0.0   939.5    0.00       0    58.3
 296    1:40   62.4    30    0.2   220      1.4   939.6    0.00       0    58.0
 296    1:50   62.0    30    1.0   247      2.6   939.5    0.00       0    57.8
 296    2:00   61.9    30    0.2   244      1.4   939.5    0.00       0    57.7
 296    2:10   61.9    30    1.3   181      2.8   939.4    0.00       0    57.5
 296    2:20   62.5    29    1.2   180      3.3   939.3    0.00       0    57.6
 296    2:30   63.3    28    1.5   162      3.6   939.2    0.00       0    57.6
 296    2:40   64.4    27    1.9   174      3.9   939.1    0.00       0    57.9
 296    2:50   63.8    27    3.2   190      5.0   939.2    0.00       0    58.1
 296    3:00   63.4    28    1.8   188      4.1   939.3    0.00       0    58.2
 296    3:10   63.1    29    2.2   191      3.9   939.3    0.00       0    58.0
 296    3:20   62.4    29    0.2   205      1.8   939.3    0.00       0    57.8
 296    3:30   61.5    30    1.6   214      3.0   939.3    0.00       0    57.5
 296    3:40   61.4    30    1.1   148      2.9   939.3    0.00       0    57.3
 296    3:50   61.4    31    0.9   200      2.5   939.3    0.00       0    57.1
 296    4:00   61.6    31    1.5   200      2.6   939.4    0.00       0    56.9
 296    4:10   61.3    31    2.0   196      3.1   939.5    0.00       0    56.8
 296    4:20   61.8    30    0.8   152      2.1   939.5    0.00       0    56.9
 296    4:30   61.6    31    0.7   114      1.7   939.4    0.00       0    57.0
 296    4:40   61.2    31    0.2   120      1.2   939.5    0.00       0    56.9
 296    4:50   60.7    32    0.8   210      2.5   939.6    0.00       0    56.8
 296    5:00   60.9    32    1.1   192      2.6   939.7    0.00       0    56.8

Return to Henderson, Nevada graphs page.


Western Regional Climate Center,wrcc@dri.edu